Time;durP1;ratioP1;P1;durP2;ratioP2;P2;SDS_P1;SDS_P2;PMS_P1;PMS_P2;Temp;Humidity;BMP_temperature;BMP_pressure;BME280_temperature;BME280_humidity;BME280_pressure;Samples;Min_cycle;Max_cycle;Signal;HPM_P1;HPM_P2
2023/11/16 00:01:18;;;;;;;6.85;6.25;;;10.50;99.90;;;;;;5053133;28;20212;-81
2023/11/16 00:03:45;;;;;;;6.40;5.80;;;10.50;99.90;;;;;;5053387;28;20220;-86
2023/11/16 00:06:12;;;;;;;6.05;5.40;;;10.40;99.90;;;;;;5053758;28;20255;-85
2023/11/16 00:08:39;;;;;;;5.70;4.93;;;10.50;99.90;;;;;;5052177;28;20616;-80
2023/11/16 00:11:11;;;;;;;6.13;5.53;;;10.50;99.90;;;;;;5053158;28;20585;-86
2023/11/16 00:13:40;;;;;;;5.90;5.40;;;10.50;99.90;;;;;;5052162;28;20228;-81
2023/11/16 00:16:12;;;;;;;6.63;5.18;;;10.50;99.90;;;;;;5052274;28;20217;-80
2023/11/16 00:18:41;;;;;;;6.78;6.13;;;10.50;99.90;;;;;;5052433;28;20225;-81
2023/11/16 00:21:08;;;;;;;19.13;14.18;;;10.50;99.90;;;;;;5054264;28;20274;-80
2023/11/16 00:23:35;;;;;;;10.57;9.48;;;10.50;99.90;;;;;;5058875;28;20239;-81
2023/11/16 00:26:04;;;;;;;13.68;11.07;;;10.50;99.90;;;;;;5076705;28;20243;-86
2023/11/16 00:28:32;;;;;;;9.30;8.25;;;10.40;99.90;;;;;;5076834;28;20223;-85
2023/11/16 00:30:59;;;;;;;7.75;6.40;;;10.40;99.90;;;;;;5076205;28;20254;-80
2023/11/16 00:33:25;;;;;;;8.57;5.95;;;10.50;99.90;;;;;;5071074;28;20217;-81
2023/11/16 00:35:58;;;;;;;7.43;6.30;;;10.50;99.90;;;;;;5061852;28;20259;-87
2023/11/16 00:38:27;;;;;;;6.03;5.38;;;10.40;99.90;;;;;;5057934;28;20240;-83
2023/11/16 00:40:56;;;;;;;6.03;5.43;;;10.50;99.90;;;;;;5057818;28;20255;-87
2023/11/16 00:43:23;;;;;;;6.03;5.32;;;10.40;99.90;;;;;;5058581;28;20228;-81
2023/11/16 00:45:52;;;;;;;5.30;4.90;;;10.50;99.90;;;;;;5056687;28;20227;-81
2023/11/16 00:48:18;;;;;;;7.35;5.97;;;10.50;99.90;;;;;;5057561;28;20298;-81
2023/11/16 00:50:46;;;;;;;4.72;4.32;;;10.50;99.90;;;;;;5081109;28;20290;-81
2023/11/16 00:53:14;;;;;;;5.93;4.50;;;10.50;99.90;;;;;;5098969;28;20304;-81
2023/11/16 00:55:41;;;;;;;6.65;5.93;;;10.50;99.90;;;;;;5101869;28;20231;-86
2023/11/16 00:58:09;;;;;;;5.40;4.43;;;10.50;99.90;;;;;;5087487;28;20224;-87
2023/11/16 01:00:36;;;;;;;5.97;5.35;;;10.50;99.90;;;;;;5089240;28;20302;-82
2023/11/16 01:03:06;;;;;;;6.00;5.50;;;10.60;99.90;;;;;;5095856;28;20553;-79
2023/11/16 01:05:33;;;;;;;6.32;4.45;;;10.60;99.90;;;;;;5097340;28;20310;-79
2023/11/16 01:08:00;;;;;;;4.90;4.50;;;10.60;99.90;;;;;;5097534;28;20230;-81
2023/11/16 01:10:30;;;;;;;5.40;4.90;;;10.60;99.90;;;;;;5098429;28;20288;-80
2023/11/16 01:12:58;;;;;;;5.15;4.20;;;10.60;99.90;;;;;;5110390;28;20231;-86
2023/11/16 01:15:26;;;;;;;5.60;4.68;;;10.60;99.90;;;;;;5124519;28;20290;-86
2023/11/16 01:17:53;;;;;;;4.22;3.83;;;10.60;99.90;;;;;;5096814;28;20251;-86
2023/11/16 01:20:23;;;;;;;6.13;4.70;;;10.60;99.90;;;;;;5108627;28;20561;-86
2023/11/16 01:23:01;;;;;;;4.60;4.20;;;10.60;99.90;;;;;;5113811;28;20221;-85
2023/11/16 01:25:32;;;;;;;4.80;4.30;;;10.60;99.90;;;;;;5108996;28;20246;-85
2023/11/16 01:28:02;;;;;;;7.82;4.38;;;10.60;99.90;;;;;;5111090;28;20226;-86
2023/11/16 01:30:29;;;;;;;4.35;3.80;;;10.60;99.90;;;;;;5113015;28;20227;-85
2023/11/16 01:32:56;;;;;;;6.15;3.80;;;10.60;99.90;;;;;;5112945;28;20289;-86
2023/11/16 01:35:25;;;;;;;7.85;4.20;;;10.60;99.90;;;;;;5114965;28;20250;-86
2023/11/16 01:38:06;;;;;;;4.05;3.72;;;10.60;99.90;;;;;;5106413;28;20223;-81
2023/11/16 01:40:40;;;;;;;4.43;4.03;;;10.60;99.90;;;;;;5102941;28;20250;-87
2023/11/16 01:43:08;;;;;;;11.98;4.78;;;10.60;99.90;;;;;;5079234;28;20224;-81
2023/11/16 01:45:36;;;;;;;5.53;4.53;;;10.60;99.90;;;;;;5079738;28;20224;-86
2023/11/16 01:48:07;;;;;;;4.65;3.78;;;10.60;99.90;;;;;;5077388;28;20605;-81
2023/11/16 01:50:37;;;;;;;9.38;4.30;;;10.60;99.90;;;;;;5098573;28;20226;-80
2023/11/16 01:53:10;;;;;;;4.00;3.70;;;10.60;99.90;;;;;;5115535;28;20226;-80
2023/11/16 01:55:41;;;;;;;5.68;4.15;;;10.60;99.90;;;;;;5128618;28;20264;-86
2023/11/16 01:58:09;;;;;;;4.40;3.92;;;10.60;99.90;;;;;;5133753;28;20219;-86
2023/11/16 02:00:42;;;;;;;5.60;3.88;;;10.60;99.90;;;;;;5107600;28;20242;-80
2023/11/16 02:03:10;;;;;;;5.38;3.75;;;10.70;99.90;;;;;;5104807;22;20657;-86
2023/11/16 02:05:38;;;;;;;9.32;5.15;;;10.70;99.90;;;;;;5103556;28;20241;-85
2023/11/16 02:08:09;;;;;;;4.13;3.50;;;10.70;99.90;;;;;;5103048;28;20223;-81
2023/11/16 02:10:38;;;;;;;10.43;5.47;;;10.60;99.90;;;;;;5102406;28;20290;-86
2023/11/16 02:13:16;;;;;;;5.65;4.05;;;10.70;99.90;;;;;;5108700;28;20667;-80
2023/11/16 02:15:46;;;;;;;4.38;4.03;;;10.70;99.90;;;;;;5114479;28;20226;-86
2023/11/16 02:18:16;;;;;;;6.20;4.30;;;10.80;99.90;;;;;;5113564;28;20227;-86
2023/11/16 02:20:45;;;;;;;8.02;4.13;;;10.80;99.90;;;;;;5115458;28;20227;-86
2023/11/16 02:23:13;;;;;;;6.07;3.50;;;10.80;99.90;;;;;;5102539;28;20238;-80
2023/11/16 02:25:45;;;;;;;4.40;3.90;;;10.90;99.90;;;;;;5102123;28;20227;-85
2023/11/16 02:28:14;;;;;;;4.75;4.28;;;10.90;99.90;;;;;;5104261;28;20288;-86
2023/11/16 02:30:41;;;;;;;6.05;3.72;;;10.90;99.90;;;;;;5101878;28;20223;-80
2023/11/16 02:33:08;;;;;;;5.40;3.47;;;11.00;99.90;;;;;;5086293;28;20219;-80
2023/11/16 02:35:36;;;;;;;6.97;4.30;;;11.00;99.90;;;;;;5097648;28;20223;-81
2023/11/16 02:38:06;;;;;;;5.32;4.57;;;11.10;99.90;;;;;;5095790;28;20635;-80
2023/11/16 02:40:34;;;;;;;6.18;4.50;;;11.10;99.90;;;;;;5099869;28;20262;-86
2023/11/16 02:43:03;;;;;;;3.80;3.50;;;11.10;99.90;;;;;;5110865;28;20223;-80
2023/11/16 02:45:32;;;;;;;10.25;3.60;;;11.10;99.90;;;;;;5096817;28;20332;-81
2023/11/16 02:48:06;;;;;;;3.55;2.97;;;11.10;99.90;;;;;;5101894;28;20211;-82
2023/11/16 02:50:37;;;;;;;6.18;3.95;;;11.10;99.90;;;;;;5105994;28;20291;-83
2023/11/16 02:53:10;;;;;;;3.83;3.42;;;10.90;99.90;;;;;;5087811;28;20252;-86
2023/11/16 02:55:44;;;;;;;6.10;3.67;;;10.90;99.90;;;;;;5113213;28;20271;-86
2023/11/16 02:58:13;;;;;;;3.60;3.20;;;10.90;99.90;;;;;;5106552;28;20232;-82
2023/11/16 03:00:44;;;;;;;3.25;2.72;;;10.90;99.90;;;;;;5096348;28;20227;-81
2023/11/16 03:03:13;;;;;;;4.00;3.60;;;10.90;99.90;;;;;;5098778;28;20665;-85
2023/11/16 03:05:43;;;;;;;3.70;3.20;;;11.00;99.90;;;;;;5112463;28;20224;-87
2023/11/16 03:08:13;;;;;;;5.00;3.45;;;11.00;99.90;;;;;;5104943;28;20219;-82
2023/11/16 03:10:53;;;;;;;3.35;3.05;;;10.90;99.90;;;;;;5100631;28;20223;-83
2023/11/16 03:13:21;;;;;;;4.05;3.65;;;10.90;99.90;;;;;;5094979;28;20227;-82
2023/11/16 03:15:51;;;;;;;4.53;3.72;;;10.90;99.90;;;;;;5097832;28;20223;-86
2023/11/16 03:18:19;;;;;;;4.75;4.18;;;10.80;99.90;;;;;;5108009;28;20226;-82
2023/11/16 03:20:47;;;;;;;6.80;3.88;;;10.80;99.90;;;;;;5095889;28;20238;-82
2023/11/16 03:23:15;;;;;;;5.43;4.13;;;10.80;99.90;;;;;;5099376;28;20235;-86
2023/11/16 03:25:42;;;;;;;4.47;3.05;;;10.80;99.90;;;;;;5112796;28;20703;-85
2023/11/16 03:28:11;;;;;;;5.93;3.63;;;10.80;99.90;;;;;;5112520;28;20250;-86
2023/11/16 03:30:39;;;;;;;6.22;4.10;;;10.80;99.90;;;;;;5098444;28;20235;-82
2023/11/16 03:33:08;;;;;;;6.20;4.00;;;10.80;99.90;;;;;;5095686;28;20326;-82
2023/11/16 03:35:38;;;;;;;5.05;3.15;;;10.80;99.90;;;;;;5095343;28;20672;-82
2023/11/16 03:38:05;;;;;;;4.70;3.42;;;10.70;99.90;;;;;;5098669;28;20281;-81
2023/11/16 03:40:40;;;;;;;5.95;4.03;;;10.70;99.90;;;;;;5097861;28;20680;-86
2023/11/16 03:43:14;;;;;;;8.77;3.58;;;10.70;99.90;;;;;;5104689;28;20226;-82
2023/11/16 03:45:51;;;;;;;6.38;4.07;;;10.70;99.90;;;;;;5102619;28;20227;-83
2023/11/16 03:48:18;;;;;;;5.38;3.83;;;10.70;99.90;;;;;;5094880;28;20231;-82
2023/11/16 03:50:45;;;;;;;8.30;3.40;;;10.60;99.90;;;;;;5099365;28;20227;-86
2023/11/16 03:53:15;;;;;;;7.15;4.13;;;10.60;99.90;;;;;;5112298;28;20223;-86
2023/11/16 03:55:42;;;;;;;5.72;4.00;;;10.60;99.90;;;;;;5101859;28;20305;-86
2023/11/16 03:58:09;;;;;;;6.03;3.00;;;10.60;99.90;;;;;;5103284;28;20253;-86
2023/11/16 04:00:52;;;;;;;9.20;3.63;;;10.50;99.90;;;;;;5112039;28;20235;-81
2023/11/16 04:03:20;;;;;;;4.78;3.08;;;10.60;99.90;;;;;;5100463;28;20231;-82
2023/11/16 04:05:50;;;;;;;5.43;3.10;;;10.60;99.90;;;;;;5103649;28;20230;-86
2023/11/16 04:08:17;;;;;;;5.13;3.17;;;10.50;99.90;;;;;;5097553;28;20276;-83
2023/11/16 04:10:45;;;;;;;4.38;3.10;;;10.50;99.90;;;;;;5100520;28;20223;-86
2023/11/16 04:13:12;;;;;;;8.10;4.03;;;10.50;99.90;;;;;;5097261;28;20219;-82
2023/11/16 04:15:39;;;;;;;6.50;3.10;;;10.50;99.90;;;;;;5097614;28;20243;-86
2023/11/16 04:18:08;;;;;;;3.78;2.72;;;10.50;99.90;;;;;;5093550;28;20241;-86
2023/11/16 04:20:36;;;;;;;3.65;2.42;;;10.50;99.90;;;;;;5108496;28;20219;-86
2023/11/16 04:23:11;;;;;;;3.28;2.83;;;10.60;99.90;;;;;;5099098;28;20669;-86
2023/11/16 04:25:39;;;;;;;5.95;3.20;;;10.50;99.90;;;;;;5100656;28;20215;-85
2023/11/16 04:28:06;;;;;;;5.22;3.67;;;10.50;99.90;;;;;;5100548;28;20227;-82
2023/11/16 04:30:36;;;;;;;3.88;3.03;;;10.50;99.90;;;;;;5102416;28;20254;-86
2023/11/16 04:33:11;;;;;;;4.13;3.17;;;10.50;99.90;;;;;;5103411;28;20235;-85
2023/11/16 04:35:43;;;;;;;7.18;3.22;;;10.50;99.90;;;;;;5091463;28;20219;-85
2023/11/16 04:38:15;;;;;;;3.83;2.92;;;10.50;99.90;;;;;;5099203;28;20660;-85
2023/11/16 04:40:42;;;;;;;5.97;2.50;;;10.50;99.90;;;;;;5097588;28;20230;-82
2023/11/16 04:43:09;;;;;;;3.80;2.63;;;10.50;99.90;;;;;;5097620;28;20611;-82
2023/11/16 04:45:36;;;;;;;6.78;2.83;;;10.50;99.90;;;;;;5096849;28;20610;-85
2023/11/16 04:48:03;;;;;;;5.07;3.85;;;10.50;99.90;;;;;;5097794;28;20218;-86
2023/11/16 04:50:31;;;;;;;3.60;3.25;;;10.50;99.90;;;;;;5080166;28;20592;-86
2023/11/16 04:53:01;;;;;;;6.50;3.40;;;10.50;99.90;;;;;;5098479;28;20229;-86
2023/11/16 04:55:28;;;;;;;5.05;2.72;;;10.40;99.90;;;;;;5098162;28;20223;-85
2023/11/16 04:57:55;;;;;;;3.10;2.90;;;10.50;99.90;;;;;;5087542;28;20667;-82
2023/11/16 05:00:22;;;;;;;4.10;2.80;;;10.50;99.90;;;;;;5096555;28;20266;-86
2023/11/16 05:02:49;;;;;;;5.10;3.03;;;10.60;99.90;;;;;;5095636;28;20231;-82
2023/11/16 05:05:16;;;;;;;5.25;3.55;;;10.60;99.90;;;;;;5096654;28;20219;-86
2023/11/16 05:07:44;;;;;;;3.42;2.95;;;10.60;99.90;;;;;;5096849;28;20310;-87
2023/11/16 05:10:16;;;;;;;4.55;3.58;;;10.60;99.90;;;;;;5096676;28;20258;-82
2023/11/16 05:12:48;;;;;;;4.72;2.50;;;10.50;99.90;;;;;;5096345;28;20243;-86
2023/11/16 05:15:16;;;;;;;4.68;3.35;;;10.50;99.90;;;;;;5096864;28;20231;-86
2023/11/16 05:17:45;;;;;;;3.10;2.80;;;10.50;99.90;;;;;;5096412;28;20309;-87
2023/11/16 05:20:12;;;;;;;6.68;3.30;;;10.40;99.90;;;;;;5097526;28;20288;-87
2023/11/16 05:22:39;;;;;;;3.30;3.10;;;10.40;99.90;;;;;;5085817;28;20688;-86
2023/11/16 05:25:07;;;;;;;5.22;3.30;;;10.40;99.90;;;;;;5095984;28;20215;-87
2023/11/16 05:27:36;;;;;;;4.10;3.05;;;10.50;99.90;;;;;;5096721;28;20302;-86
2023/11/16 05:30:04;;;;;;;4.07;2.70;;;10.50;99.90;;;;;;5095862;28;20224;-86
2023/11/16 05:32:31;;;;;;;5.68;3.30;;;10.50;99.90;;;;;;5085885;28;20665;-86
2023/11/16 05:35:00;;;;;;;4.00;3.08;;;10.50;99.90;;;;;;5078094;28;20227;-83
2023/11/16 05:37:26;;;;;;;5.15;3.42;;;10.50;99.90;;;;;;5095788;28;20223;-82
2023/11/16 05:39:53;;;;;;;6.50;3.75;;;10.50;99.90;;;;;;5094616;28;20225;-83
2023/11/16 05:42:26;;;;;;;6.13;3.42;;;10.50;99.90;;;;;;5095530;28;20235;-82
2023/11/16 05:44:56;;;;;;;6.20;2.97;;;10.60;99.90;;;;;;5095350;28;20219;-82
2023/11/16 05:47:23;;;;;;;4.90;3.58;;;10.50;99.90;;;;;;5095727;28;20777;-81
2023/11/16 05:49:50;;;;;;;4.13;2.97;;;10.50;99.90;;;;;;5095410;28;20310;-86
2023/11/16 05:52:17;;;;;;;7.50;3.55;;;10.60;99.90;;;;;;5097565;28;20699;-86
2023/11/16 05:54:46;;;;;;;3.30;2.90;;;10.60;99.90;;;;;;5086844;28;20899;-86
2023/11/16 05:57:14;;;;;;;5.90;3.22;;;10.60;99.90;;;;;;5089719;28;20234;-85
2023/11/16 05:59:41;;;;;;;5.40;3.25;;;10.60;99.90;;;;;;5085863;28;20230;-82
2023/11/16 06:02:10;;;;;;;4.57;3.30;;;10.60;99.90;;;;;;5094933;28;20246;-86
2023/11/16 06:04:39;;;;;;;3.58;2.85;;;10.70;99.90;;;;;;5096515;28;20232;-86
2023/11/16 06:07:07;;;;;;;2.90;2.60;;;10.70;99.90;;;;;;5089936;28;20230;-84
2023/11/16 06:09:35;;;;;;;3.50;3.08;;;10.70;99.90;;;;;;5096649;28;20239;-81
2023/11/16 06:12:03;;;;;;;4.80;3.10;;;10.80;99.90;;;;;;5094124;28;20228;-82
2023/11/16 06:14:35;;;;;;;6.97;3.42;;;10.80;99.90;;;;;;5094224;28;20231;-81
2023/11/16 06:17:06;;;;;;;3.20;3.00;;;10.80;99.90;;;;;;5088118;28;20698;-86
2023/11/16 06:19:34;;;;;;;5.80;3.40;;;10.80;99.90;;;;;;5094940;28;20249;-82
2023/11/16 06:22:01;;;;;;;3.47;2.90;;;10.80;99.90;;;;;;5093851;28;20277;-82
2023/11/16 06:24:28;;;;;;;5.82;3.70;;;10.80;99.90;;;;;;5085234;28;20226;-82
2023/11/16 06:27:04;;;;;;;4.95;3.67;;;10.80;99.90;;;;;;5095495;28;20219;-85
2023/11/16 06:29:47;;;;;;;13.73;9.43;;;10.80;99.90;;;;;;5097422;28;20277;-86
2023/11/16 06:32:20;;;;;;;5.57;4.97;;;10.80;99.90;;;;;;5095294;28;20227;-86
2023/11/16 06:34:52;;;;;;;4.57;3.33;;;10.80;99.90;;;;;;5086453;28;20535;-87
2023/11/16 06:37:19;;;;;;;5.07;3.20;;;10.70;99.90;;;;;;5091369;28;20523;-81
2023/11/16 06:39:58;;;;;;;5.22;3.03;;;10.60;99.90;;;;;;5095686;28;20666;-85
2023/11/16 06:42:36;;;;;;;6.25;3.00;;;10.70;99.90;;;;;;5085666;28;20691;-82
2023/11/16 06:45:07;;;;;;;6.85;2.85;;;10.70;99.90;;;;;;5094221;28;20539;-82
2023/11/16 06:47:42;;;;;;;6.28;3.92;;;10.70;99.90;;;;;;5084995;28;20223;-83
2023/11/16 06:50:22;;;;;;;;;;;;;;;;;;;;;
2023/11/16 06:52:50;;;;;;;4.70;3.25;;;10.70;99.90;;;;;;5095849;28;20242;-82
2023/11/16 06:55:19;;;;;;;9.27;4.70;;;10.60;99.90;;;;;;5093683;28;20227;-86
2023/11/16 06:57:50;;;;;;;5.35;4.05;;;10.60;99.90;;;;;;5096242;28;20297;-82
2023/11/16 07:00:21;;;;;;;11.57;6.57;;;10.60;99.90;;;;;;5097502;28;20257;-86
2023/11/16 07:02:48;;;;;;;7.65;5.78;;;10.60;99.90;;;;;;5096963;28;20235;-82
2023/11/16 07:05:29;;;;;;;8.50;5.47;;;10.50;99.90;;;;;;5097209;28;20239;-85
2023/11/16 07:07:56;;;;;;;11.57;7.60;;;10.50;99.90;;;;;;5096162;28;20222;-86
2023/11/16 07:10:24;;;;;;;3.13;2.80;;;10.60;99.90;;;;;;5094964;28;20231;-86
2023/11/16 07:12:51;;;;;;;7.68;3.38;;;10.60;99.90;;;;;;5099961;28;20233;-86
2023/11/16 07:15:20;;;;;;;8.57;5.82;;;10.60;99.90;;;;;;5097574;28;20250;-86
2023/11/16 07:17:48;;;;;;;7.80;4.60;;;10.50;99.90;;;;;;5098248;28;20226;-86
2023/11/16 07:20:17;;;;;;;6.50;4.15;;;10.50;99.90;;;;;;5095070;28;20686;-86
2023/11/16 07:22:48;;;;;;;5.88;3.00;;;10.60;99.90;;;;;;5092812;28;20237;-82
2023/11/16 07:25:33;;;;;;;4.43;3.28;;;10.60;99.90;;;;;;5093071;28;20749;-81
2023/11/16 07:28:00;;;;;;;4.72;3.20;;;10.70;99.90;;;;;;5095145;28;20219;-86
2023/11/16 07:30:52;;;;;;;5.57;3.38;;;10.70;99.90;;;;;;5095346;28;20567;-85
2023/11/16 07:33:19;;;;;;;7.05;2.90;;;10.70;99.90;;;;;;5092580;28;20230;-82
2023/11/16 07:35:51;;;;;;;5.88;3.25;;;10.70;99.90;;;;;;5093007;28;20243;-82
2023/11/16 07:41:02;;;;;;;6.00;2.70;;;10.70;99.90;;;;;;5078279;28;20219;-86
2023/11/16 07:43:30;;;;;;;4.90;2.60;;;10.80;99.90;;;;;;5112838;22;20300;-82
2023/11/16 07:45:58;;;;;;;4.30;2.67;;;10.80;99.90;;;;;;5093269;28;20230;-86
2023/11/16 07:48:28;;;;;;;5.60;3.70;;;10.80;99.90;;;;;;5093975;28;20594;-85
2023/11/16 07:50:57;;;;;;;4.97;2.45;;;10.80;99.90;;;;;;5094053;28;20223;-81
2023/11/16 07:53:24;;;;;;;3.72;2.33;;;10.80;99.90;;;;;;5093131;28;20233;-82
2023/11/16 07:55:53;;;;;;;6.75;2.85;;;10.90;99.90;;;;;;5083494;28;20254;-81
2023/11/16 07:58:21;;;;;;;8.52;2.90;;;10.80;99.90;;;;;;5093635;28;20636;-85
2023/11/16 08:01:03;;;;;;;4.63;3.53;;;10.90;99.90;;;;;;5094770;28;20247;-86
2023/11/16 08:03:46;;;;;;;6.03;4.78;;;10.90;99.90;;;;;;5095772;28;20602;-86
2023/11/16 08:06:22;;;;;;;12.68;7.15;;;10.80;99.90;;;;;;5094805;28;20280;-85
2023/11/16 08:09:00;;;;;;;6.82;5.90;;;10.80;99.90;;;;;;5069132;28;20239;-85
2023/11/16 08:11:27;;;;;;;9.30;5.57;;;10.80;99.90;;;;;;5093739;28;20306;-82
2023/11/16 08:13:57;;;;;;;5.90;3.95;;;10.80;99.90;;;;;;5092696;28;20227;-82
2023/11/16 08:16:24;;;;;;;8.20;5.90;;;10.70;99.90;;;;;;5094427;28;20235;-85
2023/11/16 08:18:53;;;;;;;6.53;4.55;;;10.70;99.90;;;;;;5093488;28;20227;-85
2023/11/16 08:21:25;;;;;;;5.70;3.78;;;10.60;99.90;;;;;;5096973;28;20243;-85
2023/11/16 08:23:54;;;;;;;3.70;3.10;;;10.70;99.90;;;;;;5085667;28;20246;-85
2023/11/16 08:26:50;;;;;;;14.10;4.35;;;10.70;99.90;;;;;;5106367;28;20274;-85
2023/11/16 08:29:18;;;;;;;7.55;3.92;;;10.70;99.90;;;;;;5096335;28;20593;-81
2023/11/16 08:31:52;;;;;;;79.72;55.28;;;10.70;99.90;;;;;;5107645;28;20310;-85
2023/11/16 08:34:19;;;;;;;25.10;19.02;;;10.70;99.90;;;;;;5107507;28;20296;-81
2023/11/16 08:36:48;;;;;;;12.85;9.15;;;10.70;99.90;;;;;;5096131;28;20276;-82
2023/11/16 08:39:50;;;;;;;4.47;3.15;;;10.70;99.90;;;;;;5095109;28;20219;-85
2023/11/16 08:42:41;;;;;;;4.43;3.03;;;10.80;99.90;;;;;;5091596;28;21886;-81
2023/11/16 08:48:06;;;;;;;4.97;2.75;;;10.80;99.90;;;;;;5060145;28;20254;-85
2023/11/16 08:50:36;;;;;;;4.72;2.90;;;10.90;99.90;;;;;;5042853;28;20236;-85
2023/11/16 08:53:08;;;;;;;3.90;2.55;;;10.90;99.90;;;;;;5075043;28;20223;-85
2023/11/16 08:55:38;;;;;;;4.00;3.03;;;10.90;99.90;;;;;;5066943;28;20239;-85
2023/11/16 08:58:06;;;;;;;7.35;3.20;;;10.90;99.90;;;;;;5075732;28;20285;-85
2023/11/16 09:00:35;;;;;;;7.57;2.25;;;11.00;99.90;;;;;;5068877;28;20228;-86
2023/11/16 09:03:33;;;;;;;7.60;3.40;;;11.00;99.90;;;;;;5065007;28;20700;-82
2023/11/16 09:06:02;;;;;;;3.78;2.92;;;11.00;99.90;;;;;;5075702;28;20305;-82
2023/11/16 09:08:33;;;;;;;3.85;2.47;;;11.00;99.90;;;;;;5075731;28;20224;-81
2023/11/16 09:10:59;;;;;;;8.15;3.00;;;11.00;99.90;;;;;;5076446;28;20764;-85
2023/11/16 09:13:43;;;;;;;4.53;2.50;;;10.90;99.90;;;;;;5066156;28;20240;-85
2023/11/16 09:16:21;;;;;;;7.85;2.65;;;11.00;99.90;;;;;;5077466;28;20999;-81
2023/11/16 09:19:17;;;;;;;5.35;2.95;;;11.00;99.90;;;;;;5075345;28;20231;-82
2023/11/16 09:21:45;;;;;;;3.35;2.20;;;11.00;99.90;;;;;;5077814;28;20224;-82
2023/11/16 09:24:22;;;;;;;5.43;2.50;;;11.00;99.90;;;;;;5076596;28;20775;-82
2023/11/16 09:26:55;;;;;;;4.28;2.80;;;11.10;99.90;;;;;;5077064;28;20227;-82
2023/11/16 09:29:22;;;;;;;4.90;2.95;;;11.10;99.90;;;;;;5079019;28;20254;-82
2023/11/16 09:31:52;;;;;;;3.78;3.47;;;11.20;99.90;;;;;;5079572;28;20293;-82
2023/11/16 09:34:27;;;;;;;4.53;3.35;;;11.20;99.90;;;;;;5079791;28;20231;-82
2023/11/16 09:37:07;;;;;;;4.57;4.00;;;11.30;99.90;;;;;;5066116;28;20233;-81
2023/11/16 09:39:48;;;;;;;4.97;3.35;;;11.40;99.90;;;;;;5053996;28;20215;-82
2023/11/16 09:42:18;;;;;;;3.05;2.78;;;11.40;99.90;;;;;;5309818;22;20490;-82
2023/11/16 09:44:58;;;;;;;6.63;3.03;;;11.50;99.90;;;;;;5120515;28;20227;-81
2023/11/16 09:47:32;;;;;;;4.15;2.70;;;11.50;99.90;;;;;;5121832;28;20223;-81
2023/11/16 09:50:08;;;;;;;5.40;2.40;;;11.60;99.90;;;;;;5122451;28;20299;-81
2023/11/16 09:53:27;;;;;;;2.33;2.13;;;11.60;99.90;;;;;;5122539;28;20218;-82
2023/11/16 09:59:01;;;;;;;;;;;;;;;;;;;;;
2023/11/16 10:01:30;;;;;;;6.15;1.60;;;11.50;99.90;;;;;;5075248;28;20564;-85
2023/11/16 10:04:07;;;;;;;3.22;1.73;;;11.50;99.90;;;;;;5098581;28;20219;-85
2023/11/16 10:06:37;;;;;;;2.28;1.65;;;11.50;99.90;;;;;;5118060;28;20234;-84
2023/11/16 10:09:14;;;;;;;1.80;1.55;;;11.50;99.90;;;;;;5119237;28;20226;-85
2023/11/16 10:12:01;;;;;;;5.68;3.67;;;11.50;99.90;;;;;;5113894;28;20264;-85
2023/11/16 10:18:11;;;;;;;2.60;1.08;;;11.50;99.90;;;;;;5104470;28;20675;-85
2023/11/16 10:20:44;;;;;;;1.20;1.10;;;11.50;99.90;;;;;;5105393;28;20227;-85
2023/11/16 10:23:16;;;;;;;3.05;1.60;;;11.50;99.90;;;;;;5113388;28;20222;-82
2023/11/16 10:25:47;;;;;;;5.28;3.55;;;11.60;99.90;;;;;;5115594;28;20233;-85
2023/11/16 10:28:17;;;;;;;2.00;1.40;;;11.60;99.90;;;;;;5104237;28;20303;-81
2023/11/16 10:31:15;;;;;;;12.63;8.23;;;11.60;99.90;;;;;;5112564;28;20222;-81
2023/11/16 10:34:11;;;;;;;4.65;3.28;;;11.60;99.90;;;;;;5094630;28;20218;-81
2023/11/16 10:36:38;;;;;;;4.05;1.92;;;11.60;99.90;;;;;;5097492;28;20242;-81
2023/11/16 10:39:17;;;;;;;2.38;1.45;;;11.70;99.90;;;;;;5102753;28;20267;-85
2023/11/16 10:44:31;;;;;;;2.60;1.40;;;11.70;99.90;;;;;;5097244;28;20244;-85
2023/11/16 10:47:01;;;;;;;1.33;0.90;;;11.70;99.90;;;;;;5114647;28;20595;-81
2023/11/16 10:49:45;;;;;;;3.17;0.85;;;11.70;99.90;;;;;;5102011;28;20222;-84
2023/11/16 10:52:19;;;;;;;3.58;1.70;;;11.70;99.90;;;;;;5092035;22;20697;-81
2023/11/16 10:54:49;;;;;;;2.30;1.05;;;11.70;99.90;;;;;;5078649;28;20300;-81
2023/11/16 10:57:19;;;;;;;1.60;1.30;;;11.70;99.90;;;;;;5059569;28;20242;-82
2023/11/16 10:59:50;;;;;;;3.75;3.22;;;11.80;99.90;;;;;;5074841;28;20589;-82
2023/11/16 11:02:18;;;;;;;1.42;1.33;;;11.90;99.90;;;;;;5066246;28;20594;-81
2023/11/16 11:04:53;;;;;;;1.35;1.10;;;11.90;99.90;;;;;;5094751;28;20223;-82
2023/11/16 11:07:23;;;;;;;0.90;0.80;;;12.00;99.90;;;;;;5097182;28;20246;-87
2023/11/16 11:09:51;;;;;;;3.03;1.55;;;12.00;99.90;;;;;;5100481;28;20227;-85
2023/11/16 11:12:28;;;;;;;0.90;0.82;;;12.10;99.90;;;;;;5110847;28;20310;-85
2023/11/16 11:14:56;;;;;;;2.33;0.77;;;12.10;99.90;;;;;;5112981;28;20302;-85
2023/11/16 11:17:37;;;;;;;1.13;0.70;;;12.10;99.90;;;;;;5113343;28;20682;-81
2023/11/16 11:20:09;;;;;;;1.20;0.77;;;12.20;99.90;;;;;;5107349;28;20215;-81
2023/11/16 11:22:38;;;;;;;1.35;0.90;;;12.30;99.90;;;;;;5101043;28;20798;-83
2023/11/16 11:25:12;;;;;;;2.08;1.50;;;12.20;99.90;;;;;;5059278;28;20248;-83
2023/11/16 11:27:39;;;;;;;4.05;1.55;;;12.30;99.90;;;;;;5092152;28;20215;-82
2023/11/16 11:30:16;;;;;;;3.45;2.95;;;12.30;99.90;;;;;;5094181;28;20250;-83
2023/11/16 11:32:59;;;;;;;3.50;2.70;;;12.30;99.90;;;;;;5117055;22;20225;-83
2023/11/16 11:35:52;;;;;;;2.70;1.70;;;12.30;99.90;;;;;;5102898;28;20237;-83
2023/11/16 11:38:26;;;;;;;1.50;1.20;;;12.20;99.90;;;;;;5113804;28;20222;-85
2023/11/16 11:41:18;;;;;;;1.58;1.35;;;12.20;99.90;;;;;;5115639;28;20627;-85
2023/11/16 11:44:04;;;;;;;2.40;1.80;;;12.10;99.90;;;;;;5094038;28;20561;-82
2023/11/16 11:46:53;;;;;;;2.88;1.90;;;12.00;99.90;;;;;;5073300;28;20317;-84
2023/11/16 11:49:20;;;;;;;2.17;1.27;;;11.90;99.90;;;;;;5093655;28;20292;-81
2023/11/16 11:51:54;;;;;;;4.10;2.97;;;11.90;99.90;;;;;;5100537;22;20442;-85
2023/11/16 11:54:35;;;;;;;5.50;2.72;;;11.90;99.90;;;;;;5094062;28;20734;-81
2023/11/16 11:57:16;;;;;;;3.53;1.77;;;11.90;99.90;;;;;;5092440;28;20219;-82
2023/11/16 11:59:45;;;;;;;3.35;1.85;;;11.80;99.90;;;;;;5093290;28;20703;-82
2023/11/16 12:02:14;;;;;;;1.50;1.35;;;11.90;99.90;;;;;;5082510;28;20242;-82
2023/11/16 12:04:50;;;;;;;2.05;1.30;;;11.90;99.90;;;;;;5092815;28;20229;-82
2023/11/16 12:07:18;;;;;;;1.70;1.60;;;11.90;99.90;;;;;;5082234;28;20738;-84
2023/11/16 12:10:15;;;;;;;2.42;1.60;;;11.80;99.90;;;;;;5093343;28;20281;-82
2023/11/16 12:12:47;;;;;;;2.97;1.70;;;11.90;99.90;;;;;;5092982;28;20239;-81
2023/11/16 12:15:27;;;;;;;2.15;1.65;;;11.90;99.90;;;;;;5092725;28;20223;-82
2023/11/16 12:18:12;;;;;;;1.70;1.55;;;11.90;99.90;;;;;;5095697;28;20332;-82
2023/11/16 12:20:40;;;;;;;1.15;1.05;;;11.90;99.90;;;;;;5080865;28;20250;-82
2023/11/16 12:23:17;;;;;;;1.10;1.00;;;11.90;99.90;;;;;;5096504;28;20228;-81
2023/11/16 12:26:18;;;;;;;1.20;0.98;;;11.90;99.90;;;;;;5080073;28;20250;-81
2023/11/16 12:28:47;;;;;;;2.75;0.93;;;11.90;99.90;;;;;;5096344;28;20223;-84
2023/11/16 12:31:31;;;;;;;1.77;1.30;;;11.90;99.90;;;;;;5097818;28;20219;-81
2023/11/16 12:34:33;;;;;;;1.63;1.10;;;11.90;99.90;;;;;;5097239;28;20242;-81
2023/11/16 12:37:31;;;;;;;1.60;1.10;;;11.90;99.90;;;;;;5077046;28;20218;-83
2023/11/16 12:40:01;;;;;;;3.00;1.48;;;12.00;99.90;;;;;;5066995;28;20231;-85
2023/11/16 12:42:30;;;;;;;2.40;1.90;;;12.00;99.90;;;;;;5078748;28;20238;-82
2023/11/16 12:45:10;;;;;;;2.58;1.50;;;12.00;99.90;;;;;;5096153;28;20218;-82
2023/11/16 12:47:42;;;;;;;2.85;1.35;;;11.90;99.90;;;;;;5085773;28;20570;-82
2023/11/16 12:50:13;;;;;;;1.23;0.98;;;12.00;99.90;;;;;;5097666;28;20230;-85
2023/11/16 12:56:09;;;;;;;3.33;1.90;;;12.00;99.90;;;;;;4989562;28;20585;-82
2023/11/16 12:58:47;;;;;;;1.75;1.65;;;11.90;99.90;;;;;;4998238;28;20235;-82
2023/11/16 13:04:05;;;;;;;2.35;1.42;;;11.90;99.90;;;;;;5073090;28;20637;-82
2023/11/16 13:06:41;;;;;;;1.95;1.85;;;11.90;99.90;;;;;;5059085;28;20251;-85
2023/11/16 13:09:14;;;;;;;1.40;1.30;;;11.80;99.90;;;;;;5066603;28;20227;-82
2023/11/16 13:11:41;;;;;;;1.83;1.30;;;11.80;99.90;;;;;;5075779;28;20232;-82
2023/11/16 13:14:12;;;;;;;2.00;1.10;;;11.80;99.90;;;;;;5054211;28;20579;-84
2023/11/16 13:16:41;;;;;;;2.95;1.30;;;11.80;99.90;;;;;;5067076;28;20670;-81
2023/11/16 13:19:08;;;;;;;3.40;1.88;;;11.80;99.90;;;;;;5062518;28;20319;-81
2023/11/16 13:21:41;;;;;;;2.30;1.20;;;11.70;99.90;;;;;;5054586;28;20220;-86
2023/11/16 13:24:13;;;;;;;1.58;1.30;;;11.70;99.90;;;;;;5077144;28;20252;-85
2023/11/16 13:26:50;;;;;;;3.47;1.08;;;11.70;99.90;;;;;;5068009;28;20277;-85
2023/11/16 13:29:39;;;;;;;1.45;0.98;;;11.70;99.90;;;;;;5066697;28;20238;-82
2023/11/16 13:32:13;;;;;;;3.33;1.75;;;11.70;99.90;;;;;;5056917;28;20225;-81
2023/11/16 13:35:26;;;;;;;2.83;1.20;;;11.70;99.90;;;;;;5050729;28;20715;-81